Weather at Ostrava Leos Janáček Airport

Public forecast

Using degrees Celsius for public forecast. Weather courtesy of forecast.io.

Current aviation weather report (METAR) for Ostrava Leos Janáček Airport

2024/07/17 18:30 (retrieved 35 minutes ago)

LKMT 171830Z 04005KT CAVOK 20/15 Q1021 NOSIG

Aviation forecast (TAF) for Ostrava Leos Janáček Airport

2024/07/17 18:32 (retrieved 33 minutes ago)

TAF LKMT 171700Z 1718/1818 02003KT CAVOK BECMG 1807/1809 02008KT